sensor_id;sensor_type;location;lat;lon;timestamp;pressure;altitude;pressure_sealevel;temperature;humidity
13553;BME280;6847;48.830;9.116;2024-03-22T00:01:46;98623.91;;;12.54;52.03
13553;BME280;6847;48.830;9.116;2024-03-22T00:04:12;98621.19;;;12.49;52.01
13553;BME280;6847;48.830;9.116;2024-03-22T00:06:38;98623.34;;;12.47;51.87
13553;BME280;6847;48.830;9.116;2024-03-22T00:09:04;98611.69;;;12.41;52.04
13553;BME280;6847;48.830;9.116;2024-03-22T00:11:32;98618.19;;;12.35;52.82
13553;BME280;6847;48.830;9.116;2024-03-22T00:13:59;98618.47;;;12.29;52.32
13553;BME280;6847;48.830;9.116;2024-03-22T00:16:26;98610.88;;;12.20;52.84
13553;BME280;6847;48.830;9.116;2024-03-22T00:18:56;98610.31;;;12.13;52.93
13553;BME280;6847;48.830;9.116;2024-03-22T00:21:23;98605.41;;;12.05;52.55
13553;BME280;6847;48.830;9.116;2024-03-22T00:23:48;98598.91;;;12.01;52.71
13553;BME280;6847;48.830;9.116;2024-03-22T00:26:15;98595.91;;;11.98;52.67
13553;BME280;6847;48.830;9.116;2024-03-22T00:28:40;98594.00;;;11.93;52.50
13553;BME280;6847;48.830;9.116;2024-03-22T00:31:11;98593.72;;;11.90;53.05
13553;BME280;6847;48.830;9.116;2024-03-22T00:33:37;98598.84;;;11.86;52.84
13553;BME280;6847;48.830;9.116;2024-03-22T00:36:04;98588.56;;;11.83;52.38
13553;BME280;6847;48.830;9.116;2024-03-22T00:38:30;98590.16;;;11.79;52.82
13553;BME280;6847;48.830;9.116;2024-03-22T00:40:57;98580.94;;;11.75;52.83
13553;BME280;6847;48.830;9.116;2024-03-22T00:43:23;98581.44;;;11.72;52.95
13553;BME280;6847;48.830;9.116;2024-03-22T00:45:52;98578.19;;;11.70;52.88
13553;BME280;6847;48.830;9.116;2024-03-22T00:48:19;98573.28;;;11.67;52.65
13553;BME280;6847;48.830;9.116;2024-03-22T00:50:46;98569.22;;;11.64;53.12
13553;BME280;6847;48.830;9.116;2024-03-22T00:53:12;98567.28;;;11.60;52.47
13553;BME280;6847;48.830;9.116;2024-03-22T00:55:38;98567.28;;;11.55;53.12
13553;BME280;6847;48.830;9.116;2024-03-22T00:58:04;98557.22;;;11.50;52.72
13553;BME280;6847;48.830;9.116;2024-03-22T01:00:33;98555.34;;;11.45;53.45
13553;BME280;6847;48.830;9.116;2024-03-22T01:02:58;98551.78;;;11.40;53.28
13553;BME280;6847;48.830;9.116;2024-03-22T01:05:28;98543.91;;;11.33;53.25
13553;BME280;6847;48.830;9.116;2024-03-22T01:07:55;98546.84;;;11.27;52.91
13553;BME280;6847;48.830;9.116;2024-03-22T01:10:23;98540.59;;;11.21;53.48
13553;BME280;6847;48.830;9.116;2024-03-22T01:12:49;98541.38;;;11.17;53.78
13553;BME280;6847;48.830;9.116;2024-03-22T01:15:15;98532.94;;;11.08;54.05
13553;BME280;6847;48.830;9.116;2024-03-22T01:17:41;98537.28;;;11.04;54.06
13553;BME280;6847;48.830;9.116;2024-03-22T01:20:08;98530.75;;;11.00;53.99
13553;BME280;6847;48.830;9.116;2024-03-22T01:22:36;98529.66;;;10.96;54.36
13553;BME280;6847;48.830;9.116;2024-03-22T01:25:02;98531.81;;;10.94;54.31
13553;BME280;6847;48.830;9.116;2024-03-22T01:27:28;98523.13;;;10.92;53.78
13553;BME280;6847;48.830;9.116;2024-03-22T01:29:55;98529.88;;;10.89;53.90
13553;BME280;6847;48.830;9.116;2024-03-22T01:32:20;98522.56;;;10.85;54.25
13553;BME280;6847;48.830;9.116;2024-03-22T01:34:48;98526.88;;;10.81;54.11
13553;BME280;6847;48.830;9.116;2024-03-22T01:37:15;98531.19;;;10.77;54.19
13553;BME280;6847;48.830;9.116;2024-03-22T01:39:44;98539.28;;;10.71;54.60
13553;BME280;6847;48.830;9.116;2024-03-22T01:42:09;98536.56;;;10.66;53.68
13553;BME280;6847;48.830;9.116;2024-03-22T01:44:36;98538.16;;;10.62;54.08
13553;BME280;6847;48.830;9.116;2024-03-22T01:47:01;98532.16;;;10.60;54.47
13553;BME280;6847;48.830;9.116;2024-03-22T01:49:31;98520.50;;;10.60;54.76
13553;BME280;6847;48.830;9.116;2024-03-22T01:51:58;98521.06;;;10.57;54.74
13553;BME280;6847;48.830;9.116;2024-03-22T01:54:24;98527.25;;;10.52;54.23
13553;BME280;6847;48.830;9.116;2024-03-22T01:56:56;98524.22;;;10.49;54.56
13553;BME280;6847;48.830;9.116;2024-03-22T01:59:23;98521.00;;;10.47;54.18
13553;BME280;6847;48.830;9.116;2024-03-22T02:01:49;98515.28;;;10.43;54.45
13553;BME280;6847;48.830;9.116;2024-03-22T02:04:17;98508.50;;;10.41;54.74
13553;BME280;6847;48.830;9.116;2024-03-22T02:06:43;98499.56;;;10.40;54.69
13553;BME280;6847;48.830;9.116;2024-03-22T02:09:09;98496.81;;;10.35;54.15
13553;BME280;6847;48.830;9.116;2024-03-22T02:11:35;98487.31;;;10.32;54.75
13553;BME280;6847;48.830;9.116;2024-03-22T02:14:04;98485.94;;;10.30;54.53
13553;BME280;6847;48.830;9.116;2024-03-22T02:16:29;98484.28;;;10.24;54.97
13553;BME280;6847;48.830;9.116;2024-03-22T02:18:56;98487.50;;;10.21;55.12
13553;BME280;6847;48.830;9.116;2024-03-22T02:21:21;98484.50;;;10.17;54.30
13553;BME280;6847;48.830;9.116;2024-03-22T02:23:49;98478.78;;;10.14;54.36
13553;BME280;6847;48.830;9.116;2024-03-22T02:26:16;98478.22;;;10.12;54.72
13553;BME280;6847;48.830;9.116;2024-03-22T02:28:43;98481.47;;;10.09;54.90
13553;BME280;6847;48.830;9.116;2024-03-22T02:31:10;98481.97;;;10.06;54.93
13553;BME280;6847;48.830;9.116;2024-03-22T02:33:36;98474.13;;;10.04;54.75
13553;BME280;6847;48.830;9.116;2024-03-22T02:36:02;98477.06;;;10.02;55.10
13553;BME280;6847;48.830;9.116;2024-03-22T02:38:32;98474.94;;;10.05;55.49
13553;BME280;6847;48.830;9.116;2024-03-22T02:40:59;98472.78;;;10.07;54.89
13553;BME280;6847;48.830;9.116;2024-03-22T02:43:33;98471.19;;;10.11;55.13
13553;BME280;6847;48.830;9.116;2024-03-22T02:45:58;98466.41;;;10.18;54.68
13553;BME280;6847;48.830;9.116;2024-03-22T02:48:27;98465.31;;;10.19;54.56
13553;BME280;6847;48.830;9.116;2024-03-22T02:50:55;98459.88;;;10.19;55.17
13553;BME280;6847;48.830;9.116;2024-03-22T02:53:23;98451.25;;;10.22;55.30
13553;BME280;6847;48.830;9.116;2024-03-22T02:58:22;98446.16;;;10.30;54.91
13553;BME280;6847;48.830;9.116;2024-03-22T03:00:49;98447.28;;;10.34;54.97
13553;BME280;6847;48.830;9.116;2024-03-22T03:03:15;98451.91;;;10.39;54.83
13553;BME280;6847;48.830;9.116;2024-03-22T03:05:43;98448.16;;;10.45;55.13
13553;BME280;6847;48.830;9.116;2024-03-22T03:08:09;98449.25;;;10.49;55.35
13553;BME280;6847;48.830;9.116;2024-03-22T03:10:37;98447.09;;;10.51;55.50
13553;BME280;6847;48.830;9.116;2024-03-22T03:13:04;98448.22;;;10.55;55.06
13553;BME280;6847;48.830;9.116;2024-03-22T03:15:33;98449.31;;;10.59;55.23
13553;BME280;6847;48.830;9.116;2024-03-22T03:18:01;98441.75;;;10.61;54.74
13553;BME280;6847;48.830;9.116;2024-03-22T03:20:28;98437.94;;;10.62;55.38
13553;BME280;6847;48.830;9.116;2024-03-22T03:22:53;98437.94;;;10.62;55.38
13553;BME280;6847;48.830;9.116;2024-03-22T03:25:24;98443.38;;;10.62;55.64
13553;BME280;6847;48.830;9.116;2024-03-22T03:27:50;98440.66;;;10.62;55.24
13553;BME280;6847;48.830;9.116;2024-03-22T03:30:16;98435.75;;;10.59;55.56
13553;BME280;6847;48.830;9.116;2024-03-22T03:32:43;98433.59;;;10.56;55.30
13553;BME280;6847;48.830;9.116;2024-03-22T03:35:10;98428.72;;;10.53;55.17
13553;BME280;6847;48.830;9.116;2024-03-22T03:37:35;98425.44;;;10.51;55.40
13553;BME280;6847;48.830;9.116;2024-03-22T03:40:01;98429.47;;;10.49;55.36
13553;BME280;6847;48.830;9.116;2024-03-22T03:42:27;98426.78;;;10.49;55.71
13553;BME280;6847;48.830;9.116;2024-03-22T03:44:54;98422.72;;;10.46;55.31
13553;BME280;6847;48.830;9.116;2024-03-22T03:47:20;98426.50;;;10.45;54.87
13553;BME280;6847;48.830;9.116;2024-03-22T03:49:49;98421.09;;;10.45;55.80
13553;BME280;6847;48.830;9.116;2024-03-22T03:52:14;98423.25;;;10.43;55.97
13553;BME280;6847;48.830;9.116;2024-03-22T03:54:40;98426.47;;;10.40;55.48
13553;BME280;6847;48.830;9.116;2024-03-22T03:57:06;98418.88;;;10.37;55.88
13553;BME280;6847;48.830;9.116;2024-03-22T03:59:32;98417.50;;;10.34;55.14
13553;BME280;6847;48.830;9.116;2024-03-22T04:01:58;98423.69;;;10.30;55.34
13553;BME280;6847;48.830;9.116;2024-03-22T04:04:24;98411.78;;;10.26;55.61
13553;BME280;6847;48.830;9.116;2024-03-22T04:06:51;98411.22;;;10.24;55.62
13553;BME280;6847;48.830;9.116;2024-03-22T04:09:17;98419.88;;;10.21;55.93
13553;BME280;6847;48.830;9.116;2024-03-22T04:11:43;98413.38;;;10.22;55.57
13553;BME280;6847;48.830;9.116;2024-03-22T04:14:09;98418.22;;;10.20;55.26
13553;BME280;6847;48.830;9.116;2024-03-22T04:16:35;98415.25;;;10.21;55.77
13553;BME280;6847;48.830;9.116;2024-03-22T04:19:02;98410.41;;;10.23;55.80
13553;BME280;6847;48.830;9.116;2024-03-22T04:21:28;98413.44;;;10.27;55.37
13553;BME280;6847;48.830;9.116;2024-03-22T04:23:57;98412.88;;;10.30;56.40
13553;BME280;6847;48.830;9.116;2024-03-22T04:26:22;98411.84;;;10.36;55.71
13553;BME280;6847;48.830;9.116;2024-03-22T04:28:50;98405.94;;;10.44;56.07
13553;BME280;6847;48.830;9.116;2024-03-22T04:31:15;98406.50;;;10.51;55.36
13553;BME280;6847;48.830;9.116;2024-03-22T04:33:42;98414.38;;;10.58;55.57
13553;BME280;6847;48.830;9.116;2024-03-22T04:36:07;98414.13;;;10.64;55.59
13553;BME280;6847;48.830;9.116;2024-03-22T04:38:35;98410.91;;;10.72;55.92
13553;BME280;6847;48.830;9.116;2024-03-22T04:41:04;98422.31;;;10.80;55.88
13553;BME280;6847;48.830;9.116;2024-03-22T04:43:30;98428.84;;;10.84;55.42
13553;BME280;6847;48.830;9.116;2024-03-22T04:45:56;98436.44;;;10.92;55.67
13553;BME280;6847;48.830;9.116;2024-03-22T04:48:23;98429.94;;;10.98;55.50
13553;BME280;6847;48.830;9.116;2024-03-22T04:50:48;98428.34;;;11.02;55.38
13553;BME280;6847;48.830;9.116;2024-03-22T04:53:15;98425.94;;;11.05;55.41
13553;BME280;6847;48.830;9.116;2024-03-22T04:55:42;98433.25;;;11.10;55.56
13553;BME280;6847;48.830;9.116;2024-03-22T04:58:13;98427.28;;;11.13;55.66
13553;BME280;6847;48.830;9.116;2024-03-22T05:00:39;98424.59;;;11.18;55.62
13553;BME280;6847;48.830;9.116;2024-03-22T05:03:05;98429.47;;;11.21;55.83
13553;BME280;6847;48.830;9.116;2024-03-22T05:05:31;98422.44;;;11.25;55.29
13553;BME280;6847;48.830;9.116;2024-03-22T05:07:56;98430.03;;;11.28;55.52
13553;BME280;6847;48.830;9.116;2024-03-22T05:10:23;98427.06;;;11.30;55.93
13553;BME280;6847;48.830;9.116;2024-03-22T05:12:48;98417.84;;;11.31;55.76
13553;BME280;6847;48.830;9.116;2024-03-22T05:15:19;98424.06;;;11.31;56.01
13553;BME280;6847;48.830;9.116;2024-03-22T05:17:45;98420.28;;;11.32;55.73
13553;BME280;6847;48.830;9.116;2024-03-22T05:20:12;98423.00;;;11.32;55.65
13553;BME280;6847;48.830;9.116;2024-03-22T05:22:37;98418.66;;;11.31;55.49
13553;BME280;6847;48.830;9.116;2024-03-22T05:25:05;98422.44;;;11.30;56.54
13553;BME280;6847;48.830;9.116;2024-03-22T05:27:31;98417.84;;;11.31;55.99
13553;BME280;6847;48.830;9.116;2024-03-22T05:29:57;98418.91;;;11.30;56.21
13553;BME280;6847;48.830;9.116;2024-03-22T05:32:24;98410.78;;;11.30;55.80
13553;BME280;6847;48.830;9.116;2024-03-22T05:34:51;98343.81;;;10.95;55.91
13553;BME280;6847;48.830;9.116;2024-03-22T05:37:16;98404.03;;;11.32;56.76
13553;BME280;6847;48.830;9.116;2024-03-22T05:39:43;98403.50;;;11.35;55.58
13553;BME280;6847;48.830;9.116;2024-03-22T05:42:09;98402.94;;;11.38;56.83
13553;BME280;6847;48.830;9.116;2024-03-22T05:44:35;98400.25;;;11.43;56.14
13553;BME280;6847;48.830;9.116;2024-03-22T05:47:04;98393.19;;;11.47;56.22
13553;BME280;6847;48.830;9.116;2024-03-22T05:49:31;98395.34;;;11.50;55.51
13553;BME280;6847;48.830;9.116;2024-03-22T05:51:57;98387.78;;;11.53;55.52
13553;BME280;6847;48.830;9.116;2024-03-22T05:54:23;98392.63;;;11.56;56.12
13553;BME280;6847;48.830;9.116;2024-03-22T05:56:48;98381.25;;;11.59;56.16
13553;BME280;6847;48.830;9.116;2024-03-22T05:59:15;98391.56;;;11.62;55.96
13553;BME280;6847;48.830;9.116;2024-03-22T06:01:41;98383.41;;;11.67;55.97
13553;BME280;6847;48.830;9.116;2024-03-22T06:04:10;98386.13;;;11.72;55.74
13553;BME280;6847;48.830;9.116;2024-03-22T06:06:38;98372.31;;;11.73;55.98
13553;BME280;6847;48.830;9.116;2024-03-22T06:09:05;98385.06;;;11.78;55.89
13553;BME280;6847;48.830;9.116;2024-03-22T06:11:39;98386.72;;;11.84;55.97
13553;BME280;6847;48.830;9.116;2024-03-22T06:14:09;98381.81;;;11.91;56.38
13553;BME280;6847;48.830;9.116;2024-03-22T06:16:34;98374.72;;;11.95;55.91
13553;BME280;6847;48.830;9.116;2024-03-22T06:19:02;98383.69;;;12.01;55.91
13553;BME280;6847;48.830;9.116;2024-03-22T06:21:28;98373.09;;;12.04;55.95
13553;BME280;6847;48.830;9.116;2024-03-22T06:23:56;98385.84;;;12.09;56.28
13553;BME280;6847;48.830;9.116;2024-03-22T06:26:23;98376.31;;;12.16;56.16
13553;BME280;6847;48.830;9.116;2024-03-22T06:28:51;98369.22;;;12.26;55.77
13553;BME280;6847;48.830;9.116;2024-03-22T06:31:18;98375.72;;;12.35;56.39
13553;BME280;6847;48.830;9.116;2024-03-22T06:33:46;98370.78;;;12.47;56.20
13553;BME280;6847;48.830;9.116;2024-03-22T06:36:11;98374.00;;;12.59;55.67
13553;BME280;6847;48.830;9.116;2024-03-22T06:38:40;98371.22;;;12.74;55.90
13553;BME280;6847;48.830;9.116;2024-03-22T06:41:07;98366.25;;;12.91;56.09
13553;BME280;6847;48.830;9.116;2024-03-22T06:43:35;98371.56;;;13.12;55.84
13553;BME280;6847;48.830;9.116;2024-03-22T06:46:00;98365.97;;;13.32;55.71
13553;BME280;6847;48.830;9.116;2024-03-22T06:48:27;98362.00;;;13.53;55.47
13553;BME280;6847;48.830;9.116;2024-03-22T06:50:53;98359.66;;;13.76;55.53
13553;BME280;6847;48.830;9.116;2024-03-22T06:53:20;98357.47;;;14.01;54.94
13553;BME280;6847;48.830;9.116;2024-03-22T06:55:45;98355.88;;;14.24;55.07
13553;BME280;6847;48.830;9.116;2024-03-22T06:58:13;98364.59;;;14.50;55.03
13553;BME280;6847;48.830;9.116;2024-03-22T07:00:38;98368.41;;;14.73;54.72
13553;BME280;6847;48.830;9.116;2024-03-22T07:03:08;98364.53;;;14.98;54.66
13553;BME280;6847;48.830;9.116;2024-03-22T07:05:33;98363.88;;;15.25;54.28
13553;BME280;6847;48.830;9.116;2024-03-22T07:08:00;98364.53;;;15.54;54.20
13553;BME280;6847;48.830;9.116;2024-03-22T07:10:28;98362.91;;;15.85;53.93
13553;BME280;6847;48.830;9.116;2024-03-22T07:12:57;98358.72;;;16.89;52.69
13553;BME280;6847;48.830;9.116;2024-03-22T07:15:25;98362.91;;;18.11;50.76
13553;BME280;6847;48.830;9.116;2024-03-22T07:17:53;98368.41;;;19.59;48.62
13553;BME280;6847;48.830;9.116;2024-03-22T07:20:18;98364.19;;;20.81;47.36
13553;BME280;6847;48.830;9.116;2024-03-22T07:22:45;98370.47;;;22.39;45.44
13553;BME280;6847;48.830;9.116;2024-03-22T07:25:11;98369.72;;;23.40;44.83
13553;BME280;6847;48.830;9.116;2024-03-22T07:27:38;98372.25;;;24.01;44.84
13553;BME280;6847;48.830;9.116;2024-03-22T07:30:09;98364.97;;;25.18;43.61
13553;BME280;6847;48.830;9.116;2024-03-22T07:32:38;98360.16;;;26.31;42.71
13553;BME280;6847;48.830;9.116;2024-03-22T07:35:04;98364.16;;;27.02;42.52
13553;BME280;6847;48.830;9.116;2024-03-22T07:37:30;98363.00;;;27.62;42.42
13553;BME280;6847;48.830;9.116;2024-03-22T07:39:57;98362.16;;;28.25;41.77
13553;BME280;6847;48.830;9.116;2024-03-22T07:42:24;98360.81;;;29.00;41.70
13553;BME280;6847;48.830;9.116;2024-03-22T07:44:49;98357.59;;;29.53;41.02
13553;BME280;6847;48.830;9.116;2024-03-22T07:47:15;98361.41;;;30.10;40.96
13553;BME280;6847;48.830;9.116;2024-03-22T07:49:42;98363.06;;;30.33;40.73
13553;BME280;6847;48.830;9.116;2024-03-22T07:52:09;98351.06;;;30.39;40.65
13553;BME280;6847;48.830;9.116;2024-03-22T07:54:34;98351.09;;;30.85;40.66
13553;BME280;6847;48.830;9.116;2024-03-22T07:57:01;98359.06;;;31.30;39.98
13553;BME280;6847;48.830;9.116;2024-03-22T07:59:26;98362.91;;;31.82;39.24
13553;BME280;6847;48.830;9.116;2024-03-22T08:01:53;98367.50;;;32.24;38.78
13553;BME280;6847;48.830;9.116;2024-03-22T08:04:18;98370.28;;;32.86;38.35
13553;BME280;6847;48.830;9.116;2024-03-22T08:06:46;98363.38;;;33.39;37.47
13553;BME280;6847;48.830;9.116;2024-03-22T08:09:12;98373.03;;;33.34;37.80
13553;BME280;6847;48.830;9.116;2024-03-22T08:11:41;98365.75;;;33.40;37.51
13553;BME280;6847;48.830;9.116;2024-03-22T08:14:07;98361.03;;;33.68;36.90
13553;BME280;6847;48.830;9.116;2024-03-22T08:16:34;98369.03;;;34.03;36.42
13553;BME280;6847;48.830;9.116;2024-03-22T08:19:01;98359.75;;;34.37;35.75
13553;BME280;6847;48.830;9.116;2024-03-22T08:21:26;98352.53;;;34.36;35.09
13553;BME280;6847;48.830;9.116;2024-03-22T08:23:54;98348.69;;;34.76;34.83
13553;BME280;6847;48.830;9.116;2024-03-22T08:26:20;98348.97;;;35.48;33.88
13553;BME280;6847;48.830;9.116;2024-03-22T08:28:46;98342.09;;;35.06;34.37
13553;BME280;6847;48.830;9.116;2024-03-22T08:31:12;98343.97;;;33.52;36.25
13553;BME280;6847;48.830;9.116;2024-03-22T08:33:38;98334.81;;;31.99;37.54
13553;BME280;6847;48.830;9.116;2024-03-22T08:36:04;98332.72;;;30.88;38.62
13553;BME280;6847;48.830;9.116;2024-03-22T08:38:30;98327.81;;;29.86;39.25
13553;BME280;6847;48.830;9.116;2024-03-22T08:40:59;98326.50;;;28.86;39.65
13553;BME280;6847;48.830;9.116;2024-03-22T08:43:26;98329.38;;;27.75;40.44
13553;BME280;6847;48.830;9.116;2024-03-22T08:45:53;98322.53;;;26.82;41.07
13553;BME280;6847;48.830;9.116;2024-03-22T08:48:19;98314.88;;;26.27;41.31
13553;BME280;6847;48.830;9.116;2024-03-22T08:50:45;98318.72;;;25.99;41.18
13553;BME280;6847;48.830;9.116;2024-03-22T08:53:11;98313.44;;;25.71;41.09
13553;BME280;6847;48.830;9.116;2024-03-22T08:55:37;98316.88;;;25.46;40.67
13553;BME280;6847;48.830;9.116;2024-03-22T08:58:05;98308.22;;;25.12;40.70
13553;BME280;6847;48.830;9.116;2024-03-22T09:00:31;98302.75;;;24.81;40.79
13553;BME280;6847;48.830;9.116;2024-03-22T09:02:57;98308.13;;;24.74;40.53
13553;BME280;6847;48.830;9.116;2024-03-22T09:05:23;98304.72;;;24.80;40.17
13553;BME280;6847;48.830;9.116;2024-03-22T09:07:51;98293.94;;;25.10;39.66
13553;BME280;6847;48.830;9.116;2024-03-22T09:10:19;98294.25;;;25.63;38.79
13553;BME280;6847;48.830;9.116;2024-03-22T09:12:45;98294.38;;;26.12;38.14
13553;BME280;6847;48.830;9.116;2024-03-22T09:15:13;98295.09;;;26.54;37.38
13553;BME280;6847;48.830;9.116;2024-03-22T09:17:41;98292.63;;;26.99;37.01
13553;BME280;6847;48.830;9.116;2024-03-22T09:20:07;98296.88;;;27.19;36.74
13553;BME280;6847;48.830;9.116;2024-03-22T09:22:35;98294.69;;;27.35;36.39
13553;BME280;6847;48.830;9.116;2024-03-22T09:25:00;98288.78;;;27.07;36.49
13553;BME280;6847;48.830;9.116;2024-03-22T09:27:27;98290.59;;;27.55;36.01
13553;BME280;6847;48.830;9.116;2024-03-22T09:29:53;98290.28;;;28.42;34.90
13553;BME280;6847;48.830;9.116;2024-03-22T09:32:25;98289.13;;;29.01;34.13
13553;BME280;6847;48.830;9.116;2024-03-22T09:34:51;98287.88;;;29.78;33.15
13553;BME280;6847;48.830;9.116;2024-03-22T09:37:21;98283.19;;;30.00;33.28
13553;BME280;6847;48.830;9.116;2024-03-22T09:39:48;98272.69;;;29.58;32.78
13553;BME280;6847;48.830;9.116;2024-03-22T09:42:15;98277.19;;;29.00;33.95
13553;BME280;6847;48.830;9.116;2024-03-22T09:44:45;98281.53;;;28.40;34.13
13553;BME280;6847;48.830;9.116;2024-03-22T09:47:14;98274.84;;;28.07;34.40
13553;BME280;6847;48.830;9.116;2024-03-22T09:49:41;98262.78;;;27.55;34.51
13553;BME280;6847;48.830;9.116;2024-03-22T09:52:11;98254.75;;;27.84;34.47
13553;BME280;6847;48.830;9.116;2024-03-22T09:54:37;98253.00;;;28.57;33.53
13553;BME280;6847;48.830;9.116;2024-03-22T09:57:04;98246.88;;;28.92;33.11
13553;BME280;6847;48.830;9.116;2024-03-22T09:59:29;98244.47;;;28.90;33.48
13553;BME280;6847;48.830;9.116;2024-03-22T10:01:56;98249.00;;;28.54;33.84
13553;BME280;6847;48.830;9.116;2024-03-22T10:04:22;98241.28;;;27.89;34.32
13553;BME280;6847;48.830;9.116;2024-03-22T10:06:50;98245.56;;;27.46;34.86
13553;BME280;6847;48.830;9.116;2024-03-22T10:09:16;98241.41;;;27.30;35.16
13553;BME280;6847;48.830;9.116;2024-03-22T10:11:44;98234.97;;;27.22;35.07
13553;BME280;6847;48.830;9.116;2024-03-22T10:14:14;98221.78;;;27.15;35.19
13553;BME280;6847;48.830;9.116;2024-03-22T10:16:44;98225.63;;;26.77;35.16
13553;BME280;6847;48.830;9.116;2024-03-22T10:19:12;98212.84;;;26.43;35.38
13553;BME280;6847;48.830;9.116;2024-03-22T10:21:40;98210.47;;;26.71;35.21
13553;BME280;6847;48.830;9.116;2024-03-22T10:24:09;98214.91;;;27.06;34.34
13553;BME280;6847;48.830;9.116;2024-03-22T10:26:38;98207.69;;;27.31;34.14
13553;BME280;6847;48.830;9.116;2024-03-22T10:29:05;98210.84;;;27.67;33.69
13553;BME280;6847;48.830;9.116;2024-03-22T10:31:36;98200.16;;;28.16;33.40
13553;BME280;6847;48.830;9.116;2024-03-22T10:34:03;98205.44;;;28.83;32.73
13553;BME280;6847;48.830;9.116;2024-03-22T10:36:32;98200.13;;;29.47;32.09
13553;BME280;6847;48.830;9.116;2024-03-22T10:38:58;98190.19;;;29.60;32.29
13553;BME280;6847;48.830;9.116;2024-03-22T10:41:28;98183.38;;;29.40;32.51
13553;BME280;6847;48.830;9.116;2024-03-22T10:43:55;98184.91;;;29.27;32.27
13553;BME280;6847;48.830;9.116;2024-03-22T10:46:21;98182.50;;;29.22;32.67
13553;BME280;6847;48.830;9.116;2024-03-22T10:48:51;98174.13;;;29.29;32.83
13553;BME280;6847;48.830;9.116;2024-03-22T10:51:18;98170.59;;;29.39;32.30
13553;BME280;6847;48.830;9.116;2024-03-22T10:53:43;98175.41;;;29.42;32.67
13553;BME280;6847;48.830;9.116;2024-03-22T10:56:12;98166.66;;;29.54;32.59
13553;BME280;6847;48.830;9.116;2024-03-22T10:58:42;98169.06;;;29.56;32.10
13553;BME280;6847;48.830;9.116;2024-03-22T11:01:21;98157.09;;;29.59;32.47
13553;BME280;6847;48.830;9.116;2024-03-22T11:03:47;98160.34;;;30.03;31.66
13553;BME280;6847;48.830;9.116;2024-03-22T11:06:13;98151.81;;;30.85;31.13
13553;BME280;6847;48.830;9.116;2024-03-22T11:08:39;98162.13;;;31.79;30.32
13553;BME280;6847;48.830;9.116;2024-03-22T11:11:09;98160.44;;;32.37;29.68
13553;BME280;6847;48.830;9.116;2024-03-22T11:13:35;98152.75;;;32.44;29.64
13553;BME280;6847;48.830;9.116;2024-03-22T11:16:07;98159.56;;;31.98;30.16
13553;BME280;6847;48.830;9.116;2024-03-22T11:18:35;98145.50;;;31.47;30.49
13553;BME280;6847;48.830;9.116;2024-03-22T11:21:01;98140.84;;;31.26;30.57
13553;BME280;6847;48.830;9.116;2024-03-22T11:23:27;98140.97;;;30.98;30.70
13553;BME280;6847;48.830;9.116;2024-03-22T11:25:53;98130.97;;;31.00;30.74
13553;BME280;6847;48.830;9.116;2024-03-22T11:28:19;98128.16;;;31.14;30.41
13553;BME280;6847;48.830;9.116;2024-03-22T11:30:47;98124.19;;;31.01;30.04
13553;BME280;6847;48.830;9.116;2024-03-22T11:33:14;98108.28;;;30.84;30.19
13553;BME280;6847;48.830;9.116;2024-03-22T11:35:40;98117.78;;;30.97;30.20
13553;BME280;6847;48.830;9.116;2024-03-22T11:38:06;98109.72;;;31.20;29.78
13553;BME280;6847;48.830;9.116;2024-03-22T11:40:31;98096.00;;;31.40;29.50
13553;BME280;6847;48.830;9.116;2024-03-22T11:42:59;98100.97;;;31.11;29.71
13553;BME280;6847;48.830;9.116;2024-03-22T11:45:26;98088.38;;;30.68;29.90
13553;BME280;6847;48.830;9.116;2024-03-22T11:48:01;98079.19;;;30.71;30.25
13553;BME280;6847;48.830;9.116;2024-03-22T11:50:28;98082.78;;;30.68;30.01
13553;BME280;6847;48.830;9.116;2024-03-22T11:52:55;98073.25;;;30.62;30.15
13553;BME280;6847;48.830;9.116;2024-03-22T11:55:21;98082.03;;;30.46;29.70
13553;BME280;6847;48.830;9.116;2024-03-22T11:57:48;98065.41;;;30.00;30.26
13553;BME280;6847;48.830;9.116;2024-03-22T12:00:14;98069.41;;;29.63;30.37
13553;BME280;6847;48.830;9.116;2024-03-22T12:02:42;98066.19;;;29.33;30.33
13553;BME280;6847;48.830;9.116;2024-03-22T12:05:08;98056.59;;;29.13;30.83
13553;BME280;6847;48.830;9.116;2024-03-22T12:07:39;98060.16;;;29.02;30.81
13553;BME280;6847;48.830;9.116;2024-03-22T12:10:05;98046.59;;;28.90;30.69
13553;BME280;6847;48.830;9.116;2024-03-22T12:12:32;98044.53;;;28.73;30.59
13553;BME280;6847;48.830;9.116;2024-03-22T12:14:58;98034.97;;;28.67;30.61
13553;BME280;6847;48.830;9.116;2024-03-22T12:17:24;98031.75;;;28.58;30.79
13553;BME280;6847;48.830;9.116;2024-03-22T12:19:51;98024.56;;;28.50;30.62
13553;BME280;6847;48.830;9.116;2024-03-22T12:22:18;98017.75;;;28.44;30.72
13553;BME280;6847;48.830;9.116;2024-03-22T12:24:51;97939.06;;;27.71;30.70
13553;BME280;6847;48.830;9.116;2024-03-22T12:27:17;98001.25;;;28.07;30.80
13553;BME280;6847;48.830;9.116;2024-03-22T12:29:43;98001.53;;;27.84;30.84
13553;BME280;6847;48.830;9.116;2024-03-22T12:32:10;97991.41;;;27.54;30.90
13553;BME280;6847;48.830;9.116;2024-03-22T12:34:36;97934.59;;;27.04;31.08
13553;BME280;6847;48.830;9.116;2024-03-22T12:37:03;97986.34;;;27.23;30.99
13553;BME280;6847;48.830;9.116;2024-03-22T12:39:28;97975.19;;;27.16;31.02
13553;BME280;6847;48.830;9.116;2024-03-22T12:41:58;97968.03;;;27.15;31.08
13553;BME280;6847;48.830;9.116;2024-03-22T12:44:24;97969.63;;;27.16;31.00
13553;BME280;6847;48.830;9.116;2024-03-22T12:46:51;97960.94;;;27.21;31.02
13553;BME280;6847;48.830;9.116;2024-03-22T12:49:17;97956.91;;;27.15;30.89
13553;BME280;6847;48.830;9.116;2024-03-22T12:51:44;97955.69;;;27.09;30.91
13553;BME280;6847;48.830;9.116;2024-03-22T12:54:10;97950.00;;;26.95;31.10
13553;BME280;6847;48.830;9.116;2024-03-22T12:56:37;97950.19;;;26.75;30.73
13553;BME280;6847;48.830;9.116;2024-03-22T12:59:06;97946.44;;;26.57;31.23
13553;BME280;6847;48.830;9.116;2024-03-22T13:01:40;97944.00;;;26.52;30.88
13553;BME280;6847;48.830;9.116;2024-03-22T13:04:05;97942.84;;;26.53;30.93
13553;BME280;6847;48.830;9.116;2024-03-22T13:06:32;97934.84;;;26.48;30.97
13553;BME280;6847;48.830;9.116;2024-03-22T13:09:00;97933.16;;;26.40;31.24
13553;BME280;6847;48.830;9.116;2024-03-22T13:11:29;97924.00;;;26.36;30.89